• Join FlightAware (Why Join?)
  • Login
  • US Flag 
06:17PM EDT


 

Airport Tracker/Info


-or-


 

Live Flight TrackerFlight Track Log ✈ LIA553 ✈ 05-May-2013 ✈ TQPF / AXA - TAPA / ANU

Flight Track Log - Related Links

Times and Time Zones

All times are in EDT time to prevent confusion due to time zone crossing. See the LIA553 flight status page for this flight to view local times or setup timezone preferences in your user account.

Time Position Orientation Groundspeed Altitude Reporting Facility
EDT Latitude Longitude Course Direction KTS MPH feet Rate Location/Type
02:45PM 17.6099 -62.4913 126° Southeast  Level FlightAware Approximate
02:46PM 17.5602 -62.4186 126° Southeast  Level FlightAware Approximate
02:47PM 17.5105 -62.3459 126° Southeast  Level FlightAware Approximate
02:48PM 17.4607 -62.2733 126° Southeast  Level FlightAware Approximate
02:49PM 17.4081 -62.2030 131° Southeast  Level FlightAware Approximate
02:50PM 17.3520 -62.1357 131° Southeast  Level FlightAware Approximate
02:51PM 17.3029 -62.0627 125° Southeast  Level FlightAware Approximate
02:52PM 17.2541 -61.9894 125° Southeast  Level FlightAware Approximate
02:53PM 17.2017 -61.9189 128° Southeast  Level FlightAware Approximate
02:54PM 17.1491 -61.8487 125° Southeast  Level FlightAware Approximate
02:55PM 17.1367 -61.7927 90° East  Level Estimated
02:56PM 17.1367 -61.7927 90° East  Level Estimated
02:57PM 17.1367 -61.7927 90° East  Level Estimated
02:58PM 17.1367 -61.7927 90° East  Level Estimated
02:59PM 17.1367 -61.7927 90° East  Level Estimated
03:00PM 17.1367 -61.7927 90° East  Level Estimated
03:01PM 17.1367 -61.7927 90° East  Level Estimated
03:02PM 17.1367 -61.7927 90° East  Level Estimated
03:03PM 17.1367 -61.7927 90° East  Level Estimated
03:04PM 17.1367 -61.7927 90° East  Level Estimated
03:05PM 17.1367 -61.7927 90° East  Level Estimated
03:06PM 17.1367 -61.7927 90° East  Level Estimated
03:07PM 17.1367 -61.7927 90° East  Level Estimated
03:08PM 17.1367 -61.7927 90° East  Level Estimated
03:09PM 17.1367 -61.7927 90° East  Level Estimated
03:10PM 17.1367 -61.7927 90° East  Level Estimated
03:11PM 17.1367 -61.7927 90° East  Level Estimated